sensor_id;sensor_type;location;lat;lon;timestamp;pressure;altitude;pressure_sealevel;temperature;humidity
42125;BME280;27787;44.594;11.046;2023-04-10T00:00:27;101727.78;;;13.13;48.79
42125;BME280;27787;44.594;11.046;2023-04-10T00:03:13;101731.31;;;13.13;48.89
42125;BME280;27787;44.594;11.046;2023-04-10T00:05:57;101725.13;;;13.11;49.15
42125;BME280;27787;44.594;11.046;2023-04-10T00:08:41;101730.38;;;13.07;49.13
42125;BME280;27787;44.594;11.046;2023-04-10T00:11:26;101728.56;;;13.03;49.66
42125;BME280;27787;44.594;11.046;2023-04-10T00:14:10;101732.97;;;13.02;49.92
42125;BME280;27787;44.594;11.046;2023-04-10T00:16:55;101723.28;;;13.04;50.25
42125;BME280;27787;44.594;11.046;2023-04-10T00:19:39;101720.63;;;13.04;50.27
42125;BME280;27787;44.594;11.046;2023-04-10T00:22:24;101717.19;;;13.14;50.23
42125;BME280;27787;44.594;11.046;2023-04-10T00:25:08;101725.22;;;13.17;49.77
42125;BME280;27787;44.594;11.046;2023-04-10T00:27:53;101728.84;;;13.22;49.43
42125;BME280;27787;44.594;11.046;2023-04-10T00:30:37;101717.34;;;13.23;49.41
42125;BME280;27787;44.594;11.046;2023-04-10T00:33:22;101716.50;;;13.26;49.70
42125;BME280;27787;44.594;11.046;2023-04-10T00:36:06;101723.66;;;13.33;49.61
42125;BME280;27787;44.594;11.046;2023-04-10T00:38:50;101716.63;;;13.37;49.37
42125;BME280;27787;44.594;11.046;2023-04-10T00:41:34;101721.06;;;13.38;49.21
42125;BME280;27787;44.594;11.046;2023-04-10T00:44:18;101714.94;;;13.42;49.52
42125;BME280;27787;44.594;11.046;2023-04-10T00:47:03;101705.22;;;13.44;49.46
42125;BME280;27787;44.594;11.046;2023-04-10T00:49:49;101708.75;;;13.43;49.85
42125;BME280;27787;44.594;11.046;2023-04-10T00:52:34;101704.31;;;13.42;50.22
42125;BME280;27787;44.594;11.046;2023-04-10T00:55:18;101706.97;;;13.42;50.37
42125;BME280;27787;44.594;11.046;2023-04-10T00:58:03;101712.22;;;13.40;50.71
42125;BME280;27787;44.594;11.046;2023-04-10T01:00:47;101702.47;;;13.36;51.26
42125;BME280;27787;44.594;11.046;2023-04-10T01:03:31;101709.53;;;13.34;51.38
42125;BME280;27787;44.594;11.046;2023-04-10T01:06:39;101708.53;;;13.26;51.86
42125;BME280;27787;44.594;11.046;2023-04-10T01:09:37;101708.47;;;13.18;52.29
42125;BME280;27787;44.594;11.046;2023-04-10T01:12:54;101710.09;;;13.10;52.87
42125;BME280;27787;44.594;11.046;2023-04-10T01:22:03;101714.38;;;12.99;53.92
42125;BME280;27787;44.594;11.046;2023-04-10T01:31:03;101714.16;;;12.84;54.82
42125;BME280;27787;44.594;11.046;2023-04-10T01:33:53;101712.38;;;12.81;55.46
42125;BME280;27787;44.594;11.046;2023-04-10T01:37:03;101708.84;;;12.81;55.16
42125;BME280;27787;44.594;11.046;2023-04-10T01:39:51;101700.91;;;12.82;55.28
42125;BME280;27787;44.594;11.046;2023-04-10T01:42:49;101700.94;;;12.85;54.84
42125;BME280;27787;44.594;11.046;2023-04-10T01:45:35;101697.38;;;12.82;54.90
42125;BME280;27787;44.594;11.046;2023-04-10T01:48:21;101709.59;;;12.74;55.28
42125;BME280;27787;44.594;11.046;2023-04-10T01:51:06;101699.00;;;12.74;55.54
42125;BME280;27787;44.594;11.046;2023-04-10T01:53:52;101691.97;;;12.76;55.98
42125;BME280;27787;44.594;11.046;2023-04-10T01:56:42;101704.31;;;12.74;55.96
42125;BME280;27787;44.594;11.046;2023-04-10T01:59:29;101696.22;;;12.63;56.26
42125;BME280;27787;44.594;11.046;2023-04-10T02:02:14;101705.88;;;12.59;56.11
42125;BME280;27787;44.594;11.046;2023-04-10T02:04:59;101703.13;;;12.52;56.41
42125;BME280;27787;44.594;11.046;2023-04-10T02:07:53;101708.34;;;12.46;57.03
42125;BME280;27787;44.594;11.046;2023-04-10T02:10:50;101708.28;;;12.43;56.98
42125;BME280;27787;44.594;11.046;2023-04-10T02:13:37;101718.03;;;12.45;57.28
42125;BME280;27787;44.594;11.046;2023-04-10T02:16:23;101715.28;;;12.37;57.21
42125;BME280;27787;44.594;11.046;2023-04-10T02:19:10;101711.66;;;12.32;57.64
42125;BME280;27787;44.594;11.046;2023-04-10T02:21:56;101718.69;;;12.30;57.93
42125;BME280;27787;44.594;11.046;2023-04-10T02:24:41;101716.94;;;12.31;57.73
42125;BME280;27787;44.594;11.046;2023-04-10T02:27:29;101723.09;;;12.30;57.83
42125;BME280;27787;44.594;11.046;2023-04-10T02:30:15;101716.84;;;12.25;58.25
42125;BME280;27787;44.594;11.046;2023-04-10T02:33:01;101720.38;;;12.25;58.49
42125;BME280;27787;44.594;11.046;2023-04-10T02:35:47;101720.31;;;12.22;58.35
42125;BME280;27787;44.594;11.046;2023-04-10T02:38:32;101721.13;;;12.17;59.10
42125;BME280;27787;44.594;11.046;2023-04-10T02:41:17;101716.56;;;12.09;59.34
42125;BME280;27787;44.594;11.046;2023-04-10T02:44:01;101714.59;;;11.96;59.83
42125;BME280;27787;44.594;11.046;2023-04-10T02:46:46;101717.91;;;11.83;60.99
42125;BME280;27787;44.594;11.046;2023-04-10T02:49:32;101726.56;;;11.76;61.21
42125;BME280;27787;44.594;11.046;2023-04-10T02:52:24;101721.09;;;11.67;61.92
42125;BME280;27787;44.594;11.046;2023-04-10T02:55:09;101724.59;;;11.64;62.22
42125;BME280;27787;44.594;11.046;2023-04-10T02:57:55;101726.31;;;11.62;62.52
42125;BME280;27787;44.594;11.046;2023-04-10T03:00:40;101718.38;;;11.61;62.56
42125;BME280;27787;44.594;11.046;2023-04-10T03:03:48;101719.28;;;11.63;62.94
42125;BME280;27787;44.594;11.046;2023-04-10T03:06:42;101714.72;;;11.56;62.73
42125;BME280;27787;44.594;11.046;2023-04-10T03:09:26;101718.16;;;11.50;63.00
42125;BME280;27787;44.594;11.046;2023-04-10T03:12:11;101721.50;;;11.41;63.05
42125;BME280;27787;44.594;11.046;2023-04-10T03:14:55;101720.38;;;11.29;63.92
42125;BME280;27787;44.594;11.046;2023-04-10T03:17:39;101721.91;;;11.17;64.20
42125;BME280;27787;44.594;11.046;2023-04-10T03:20:24;101725.28;;;11.09;64.65
42125;BME280;27787;44.594;11.046;2023-04-10T03:23:09;101723.28;;;10.99;65.07
42125;BME280;27787;44.594;11.046;2023-04-10T03:25:53;101730.19;;;10.92;65.40
42125;BME280;27787;44.594;11.046;2023-04-10T03:28:41;101734.56;;;10.91;65.95
42125;BME280;27787;44.594;11.046;2023-04-10T03:31:27;101737.38;;;10.99;66.71
42125;BME280;27787;44.594;11.046;2023-04-10T03:34:15;101744.38;;;10.96;66.49
42125;BME280;27787;44.594;11.046;2023-04-10T03:36:59;101731.84;;;10.87;65.89
42125;BME280;27787;44.594;11.046;2023-04-10T03:39:44;101741.47;;;10.83;65.75
42125;BME280;27787;44.594;11.046;2023-04-10T03:42:30;101743.03;;;10.75;65.59
42125;BME280;27787;44.594;11.046;2023-04-10T03:45:15;101740.31;;;10.72;66.31
42125;BME280;27787;44.594;11.046;2023-04-10T03:47:59;101745.56;;;10.71;65.64
42125;BME280;27787;44.594;11.046;2023-04-10T03:50:47;101749.69;;;10.58;66.41
42125;BME280;27787;44.594;11.046;2023-04-10T03:53:31;101745.13;;;10.52;67.07
42125;BME280;27787;44.594;11.046;2023-04-10T03:56:22;101748.56;;;10.48;67.50
42125;BME280;27787;44.594;11.046;2023-04-10T03:59:07;101752.91;;;10.45;67.49
42125;BME280;27787;44.594;11.046;2023-04-10T04:01:56;101750.28;;;10.46;67.90
42125;BME280;27787;44.594;11.046;2023-04-10T04:04:41;101750.38;;;10.51;67.76
42125;BME280;27787;44.594;11.046;2023-04-10T04:07:45;101754.91;;;10.55;68.04
42125;BME280;27787;44.594;11.046;2023-04-10T04:11:08;101756.78;;;10.60;68.04
42125;BME280;27787;44.594;11.046;2023-04-10T04:14:13;101763.03;;;10.66;68.02
42125;BME280;27787;44.594;11.046;2023-04-10T04:17:26;101769.38;;;10.72;68.17
42125;BME280;27787;44.594;11.046;2023-04-10T04:20:17;101762.34;;;10.73;67.29
42125;BME280;27787;44.594;11.046;2023-04-10T04:23:20;101771.84;;;10.66;67.23
42125;BME280;27787;44.594;11.046;2023-04-10T04:26:23;101776.06;;;10.56;68.06
42125;BME280;27787;44.594;11.046;2023-04-10T04:29:27;101780.19;;;10.45;68.30
42125;BME280;27787;44.594;11.046;2023-04-10T04:32:37;101780.91;;;10.40;69.29
42125;BME280;27787;44.594;11.046;2023-04-10T04:35:40;101782.75;;;10.42;69.36
42125;BME280;27787;44.594;11.046;2023-04-10T04:38:47;101787.19;;;10.43;69.11
42125;BME280;27787;44.594;11.046;2023-04-10T04:41:48;101790.66;;;10.42;69.09
42125;BME280;27787;44.594;11.046;2023-04-10T04:44:54;101796.06;;;10.47;68.98
42125;BME280;27787;44.594;11.046;2023-04-10T04:48:02;101797.88;;;10.49;68.23
42125;BME280;27787;44.594;11.046;2023-04-10T04:51:12;101799.50;;;10.44;68.73
42125;BME280;27787;44.594;11.046;2023-04-10T04:54:17;101802.84;;;10.37;69.14
42125;BME280;27787;44.594;11.046;2023-04-10T04:57:08;101810.59;;;10.29;69.50
42125;BME280;27787;44.594;11.046;2023-04-10T05:00:13;101808.56;;;10.21;69.45
42125;BME280;27787;44.594;11.046;2023-04-10T05:03:20;101811.84;;;10.12;69.80
42125;BME280;27787;44.594;11.046;2023-04-10T05:06:16;101820.44;;;10.03;70.47
42125;BME280;27787;44.594;11.046;2023-04-10T05:09:27;101820.47;;;10.05;70.64
42125;BME280;27787;44.594;11.046;2023-04-10T05:12:30;101820.50;;;10.07;70.96
42125;BME280;27787;44.594;11.046;2023-04-10T05:15:20;101822.25;;;10.06;71.30
42125;BME280;27787;44.594;11.046;2023-04-10T05:18:19;101825.59;;;10.00;71.80
42125;BME280;27787;44.594;11.046;2023-04-10T05:21:17;101832.50;;;9.95;71.71
42125;BME280;27787;44.594;11.046;2023-04-10T05:24:25;101828.72;;;9.86;72.43
42125;BME280;27787;44.594;11.046;2023-04-10T05:27:28;101834.78;;;9.82;72.54
42125;BME280;27787;44.594;11.046;2023-04-10T05:30:36;101844.41;;;9.80;72.98
42125;BME280;27787;44.594;11.046;2023-04-10T05:33:28;101841.84;;;9.83;72.85
42125;BME280;27787;44.594;11.046;2023-04-10T05:36:38;101841.06;;;9.87;72.71
42125;BME280;27787;44.594;11.046;2023-04-10T05:39:47;101849.97;;;9.90;72.64
42125;BME280;27787;44.594;11.046;2023-04-10T05:42:43;101843.88;;;9.93;72.78
42125;BME280;27787;44.594;11.046;2023-04-10T05:45:38;101843.03;;;9.94;73.18
42125;BME280;27787;44.594;11.046;2023-04-10T05:48:42;101848.38;;;9.97;72.92
42125;BME280;27787;44.594;11.046;2023-04-10T05:51:56;101853.69;;;9.98;72.63
42125;BME280;27787;44.594;11.046;2023-04-10T05:55:09;101854.50;;;9.96;73.08
42125;BME280;27787;44.594;11.046;2023-04-10T05:57:59;101857.00;;;9.90;73.17
42125;BME280;27787;44.594;11.046;2023-04-10T06:01:07;101860.44;;;9.89;73.47
42125;BME280;27787;44.594;11.046;2023-04-10T06:04:06;101863.34;;;9.98;73.50
42125;BME280;27787;44.594;11.046;2023-04-10T06:06:52;101867.31;;;10.15;71.93
42125;BME280;27787;44.594;11.046;2023-04-10T06:09:36;101866.72;;;10.24;71.64
42125;BME280;27787;44.594;11.046;2023-04-10T06:12:23;101871.41;;;10.34;70.87
42125;BME280;27787;44.594;11.046;2023-04-10T06:15:07;101878.59;;;10.41;70.10
42125;BME280;27787;44.594;11.046;2023-04-10T06:17:54;101867.31;;;10.47;69.43
42125;BME280;27787;44.594;11.046;2023-04-10T06:20:38;101877.03;;;10.48;70.50
42125;BME280;27787;44.594;11.046;2023-04-10T06:23:22;101881.63;;;10.55;69.98
42125;BME280;27787;44.594;11.046;2023-04-10T06:26:06;101871.88;;;10.54;70.02
42125;BME280;27787;44.594;11.046;2023-04-10T06:28:51;101881.56;;;10.53;70.09
42125;BME280;27787;44.594;11.046;2023-04-10T06:31:36;101885.81;;;10.47;70.77
42125;BME280;27787;44.594;11.046;2023-04-10T06:34:21;101887.56;;;10.46;70.73
42125;BME280;27787;44.594;11.046;2023-04-10T06:37:18;101893.75;;;10.48;70.76
42125;BME280;27787;44.594;11.046;2023-04-10T06:40:10;101886.91;;;10.55;70.63
42125;BME280;27787;44.594;11.046;2023-04-10T06:42:54;101881.75;;;10.61;70.14
42125;BME280;27787;44.594;11.046;2023-04-10T06:45:45;101880.25;;;10.71;70.12
42125;BME280;27787;44.594;11.046;2023-04-10T06:48:30;101881.25;;;10.76;70.18
42125;BME280;27787;44.594;11.046;2023-04-10T06:51:15;101872.53;;;10.80;69.60
42125;BME280;27787;44.594;11.046;2023-04-10T06:54:01;101876.25;;;10.88;69.90
42125;BME280;27787;44.594;11.046;2023-04-10T06:56:45;101880.06;;;10.99;69.26
42125;BME280;27787;44.594;11.046;2023-04-10T06:59:29;101885.59;;;11.10;68.39
42125;BME280;27787;44.594;11.046;2023-04-10T07:02:14;101878.84;;;11.22;67.44
42125;BME280;27787;44.594;11.046;2023-04-10T07:04:59;101878.13;;;11.31;66.51
42125;BME280;27787;44.594;11.046;2023-04-10T07:07:43;101883.59;;;11.39;65.84
42125;BME280;27787;44.594;11.046;2023-04-10T07:10:27;101876.78;;;11.48;64.95
42125;BME280;27787;44.594;11.046;2023-04-10T07:13:12;101868.06;;;11.54;63.98
42125;BME280;27787;44.594;11.046;2023-04-10T07:15:56;101869.19;;;11.65;62.76
42125;BME280;27787;44.594;11.046;2023-04-10T07:18:41;101873.81;;;11.75;61.68
42125;BME280;27787;44.594;11.046;2023-04-10T07:21:25;101874.78;;;11.79;61.04
42125;BME280;27787;44.594;11.046;2023-04-10T07:24:10;101869.63;;;11.85;61.06
42125;BME280;27787;44.594;11.046;2023-04-10T07:26:55;101868.00;;;11.92;59.57
42125;BME280;27787;44.594;11.046;2023-04-10T07:29:40;101876.91;;;11.97;58.27
42125;BME280;27787;44.594;11.046;2023-04-10T07:32:25;101865.56;;;12.02;57.83
42125;BME280;27787;44.594;11.046;2023-04-10T07:35:09;101863.03;;;12.10;58.11
42125;BME280;27787;44.594;11.046;2023-04-10T07:37:54;101864.06;;;12.17;58.19
42125;BME280;27787;44.594;11.046;2023-04-10T07:40:38;101863.22;;;12.19;57.43
42125;BME280;27787;44.594;11.046;2023-04-10T07:43:22;101866.75;;;12.20;56.60
42125;BME280;27787;44.594;11.046;2023-04-10T07:46:06;101869.44;;;12.23;56.74
42125;BME280;27787;44.594;11.046;2023-04-10T07:48:50;101871.28;;;12.25;56.63
42125;BME280;27787;44.594;11.046;2023-04-10T07:51:34;101866.03;;;12.27;56.39
42125;BME280;27787;44.594;11.046;2023-04-10T07:54:19;101867.81;;;12.29;56.90
42125;BME280;27787;44.594;11.046;2023-04-10T07:57:04;101864.47;;;12.39;56.84
42125;BME280;27787;44.594;11.046;2023-04-10T07:59:48;101864.56;;;12.44;56.19
42125;BME280;27787;44.594;11.046;2023-04-10T08:02:32;101873.41;;;12.46;55.85
42125;BME280;27787;44.594;11.046;2023-04-10T08:05:16;101870.78;;;12.48;56.19
42125;BME280;27787;44.594;11.046;2023-04-10T08:07:59;101873.56;;;12.55;56.35
42125;BME280;27787;44.594;11.046;2023-04-10T08:10:43;101871.97;;;12.63;55.90
42125;BME280;27787;44.594;11.046;2023-04-10T08:13:27;101877.34;;;12.69;55.90
42125;BME280;27787;44.594;11.046;2023-04-10T08:16:12;101883.66;;;12.76;55.83
42125;BME280;27787;44.594;11.046;2023-04-10T08:18:57;101881.97;;;12.83;55.99
42125;BME280;27787;44.594;11.046;2023-04-10T08:21:41;101889.19;;;12.90;55.83
42125;BME280;27787;44.594;11.046;2023-04-10T08:24:25;101888.34;;;12.94;55.03
42125;BME280;27787;44.594;11.046;2023-04-10T08:27:10;101897.19;;;12.94;52.39
42125;BME280;27787;44.594;11.046;2023-04-10T08:29:54;101888.34;;;12.94;52.46
42125;BME280;27787;44.594;11.046;2023-04-10T08:32:38;101891.94;;;12.99;53.01
42125;BME280;27787;44.594;11.046;2023-04-10T08:35:22;101891.09;;;13.02;52.78
42125;BME280;27787;44.594;11.046;2023-04-10T08:38:06;101889.44;;;13.07;52.73
42125;BME280;27787;44.594;11.046;2023-04-10T08:40:52;101888.59;;;13.11;52.46
42125;BME280;27787;44.594;11.046;2023-04-10T08:43:37;101893.06;;;13.15;52.89
42125;BME280;27787;44.594;11.046;2023-04-10T08:46:24;101891.34;;;13.17;52.14
42125;BME280;27787;44.594;11.046;2023-04-10T08:49:14;101890.47;;;13.16;52.23
42125;BME280;27787;44.594;11.046;2023-04-10T08:52:01;101888.78;;;13.21;52.20
42125;BME280;27787;44.594;11.046;2023-04-10T08:54:52;101887.06;;;13.25;52.66
42125;BME280;27787;44.594;11.046;2023-04-10T08:57:37;101882.75;;;13.32;52.45
42125;BME280;27787;44.594;11.046;2023-04-10T09:00:21;101892.53;;;13.36;51.43
42125;BME280;27787;44.594;11.046;2023-04-10T09:03:09;101889.97;;;13.42;50.46
42125;BME280;27787;44.594;11.046;2023-04-10T09:06:01;101883.88;;;13.49;50.19
42125;BME280;27787;44.594;11.046;2023-04-10T09:08:46;101890.97;;;13.51;49.43
42125;BME280;27787;44.594;11.046;2023-04-10T09:14:41;101888.38;;;13.54;49.09
42125;BME280;27787;44.594;11.046;2023-04-10T09:17:25;101893.72;;;13.56;49.28
42125;BME280;27787;44.594;11.046;2023-04-10T09:20:20;101892.88;;;13.60;49.42
42125;BME280;27787;44.594;11.046;2023-04-10T09:23:19;101889.38;;;13.64;49.76
42125;BME280;27787;44.594;11.046;2023-04-10T09:29:11;101888.63;;;13.76;49.44
42125;BME280;27787;44.594;11.046;2023-04-10T09:31:55;101884.25;;;13.79;48.63
42125;BME280;27787;44.594;11.046;2023-04-10T09:34:53;101894.03;;;13.82;48.28
42125;BME280;27787;44.594;11.046;2023-04-10T09:37:38;101889.63;;;13.82;48.20
42125;BME280;27787;44.594;11.046;2023-04-10T09:40:24;101892.31;;;13.85;48.13
42125;BME280;27787;44.594;11.046;2023-04-10T09:46:05;101879.09;;;13.92;47.60
42125;BME280;27787;44.594;11.046;2023-04-10T09:48:55;101889.66;;;13.87;47.33
42125;BME280;27787;44.594;11.046;2023-04-10T09:51:46;101882.59;;;13.87;48.16
42125;BME280;27787;44.594;11.046;2023-04-10T09:54:35;101875.50;;;13.85;48.38
42125;BME280;27787;44.594;11.046;2023-04-10T09:57:24;101884.38;;;13.88;48.89
42125;BME280;27787;44.594;11.046;2023-04-10T10:00:09;101881.75;;;13.92;49.14
42125;BME280;27787;44.594;11.046;2023-04-10T10:02:55;101880.97;;;14.02;49.33
42125;BME280;27787;44.594;11.046;2023-04-10T10:05:43;101877.44;;;14.03;47.30
42125;BME280;27787;44.594;11.046;2023-04-10T10:08:29;101874.88;;;14.07;47.49
42125;BME280;27787;44.594;11.046;2023-04-10T10:11:20;101882.88;;;14.12;47.63
42125;BME280;27787;44.594;11.046;2023-04-10T10:14:12;101880.22;;;14.12;47.17
42125;BME280;27787;44.594;11.046;2023-04-10T10:17:00;101873.19;;;14.18;46.68
42125;BME280;27787;44.594;11.046;2023-04-10T10:20:02;101863.44;;;14.16;45.88
42125;BME280;27787;44.594;11.046;2023-04-10T10:22:48;101865.19;;;14.14;46.01
42125;BME280;27787;44.594;11.046;2023-04-10T10:25:37;101853.69;;;14.13;46.75
42125;BME280;27787;44.594;11.046;2023-04-10T10:28:23;101856.41;;;14.21;47.97
42125;BME280;27787;44.594;11.046;2023-04-10T10:31:09;101852.97;;;14.31;48.13
42125;BME280;27787;44.594;11.046;2023-04-10T10:33:54;101851.22;;;14.33;48.14
42125;BME280;27787;44.594;11.046;2023-04-10T10:36:39;101844.91;;;14.21;47.89
42125;BME280;27787;44.594;11.046;2023-04-10T10:39:52;101833.34;;;14.18;48.47
42125;BME280;27787;44.594;11.046;2023-04-10T10:42:54;101836.16;;;14.32;49.32
42125;BME280;27787;44.594;11.046;2023-04-10T10:45:47;101829.25;;;14.50;49.12
42125;BME280;27787;44.594;11.046;2023-04-10T10:48:33;101819.56;;;14.58;48.53
42125;BME280;27787;44.594;11.046;2023-04-10T10:51:17;101826.72;;;14.66;48.63
42125;BME280;27787;44.594;11.046;2023-04-10T10:54:01;101821.47;;;14.72;48.60
42125;BME280;27787;44.594;11.046;2023-04-10T10:56:46;101818.81;;;14.74;48.12
42125;BME280;27787;44.594;11.046;2023-04-10T11:02:26;101817.06;;;14.78;47.78
42125;BME280;27787;44.594;11.046;2023-04-10T11:06:13;101817.16;;;14.87;47.49
42125;BME280;27787;44.594;11.046;2023-04-10T11:08:40;101812.66;;;14.84;46.27
42125;BME280;27787;44.594;11.046;2023-04-10T11:11:56;101802.91;;;14.82;46.94
42125;BME280;27787;44.594;11.046;2023-04-10T11:14:42;101808.28;;;14.86;47.18
42125;BME280;27787;44.594;11.046;2023-04-10T11:18:00;101797.69;;;14.94;47.22
42125;BME280;27787;44.594;11.046;2023-04-10T11:21:08;101803.03;;;14.98;46.82
42125;BME280;27787;44.594;11.046;2023-04-10T11:26:39;101795.13;;;15.11;46.95
42125;BME280;27787;44.594;11.046;2023-04-10T11:32:09;101792.47;;;15.11;45.79
42125;BME280;27787;44.594;11.046;2023-04-10T11:34:54;101782.72;;;15.13;46.26
42125;BME280;27787;44.594;11.046;2023-04-10T11:37:38;101790.72;;;15.11;45.82
42125;BME280;27787;44.594;11.046;2023-04-10T11:40:22;101785.41;;;15.14;46.16
42125;BME280;27787;44.594;11.046;2023-04-10T11:43:13;101780.91;;;15.05;46.00
42125;BME280;27787;44.594;11.046;2023-04-10T11:46:07;101779.06;;;14.95;46.21
42125;BME280;27787;44.594;11.046;2023-04-10T11:48:53;101771.06;;;14.86;46.43
42125;BME280;27787;44.594;11.046;2023-04-10T11:51:39;101766.63;;;14.85;46.36
42125;BME280;27787;44.594;11.046;2023-04-10T11:54:25;101760.44;;;14.92;46.25
42125;BME280;27787;44.594;11.046;2023-04-10T11:57:09;101759.63;;;15.04;46.64
42125;BME280;27787;44.594;11.046;2023-04-10T11:59:55;101757.91;;;15.20;46.69
42125;BME280;27787;44.594;11.046;2023-04-10T12:02:51;101749.09;;;15.34;46.71
42125;BME280;27787;44.594;11.046;2023-04-10T12:05:46;101750.03;;;15.49;46.08
42125;BME280;27787;44.594;11.046;2023-04-10T12:08:34;101753.63;;;15.57;45.24
42125;BME280;27787;44.594;11.046;2023-04-10T12:11:24;101754.56;;;15.63;45.21
42125;BME280;27787;44.594;11.046;2023-04-10T12:14:08;101749.25;;;15.68;44.81
42125;BME280;27787;44.594;11.046;2023-04-10T12:16:53;101754.56;;;15.67;44.07
42125;BME280;27787;44.594;11.046;2023-04-10T12:19:38;101751.03;;;15.71;43.57
42125;BME280;27787;44.594;11.046;2023-04-10T12:22:22;101749.25;;;15.67;43.11
42125;BME280;27787;44.594;11.046;2023-04-10T12:25:10;101751.91;;;15.63;42.99
42125;BME280;27787;44.594;11.046;2023-04-10T12:27:55;101752.75;;;15.58;43.18
42125;BME280;27787;44.594;11.046;2023-04-10T12:30:53;101740.34;;;15.60;43.63
42125;BME280;27787;44.594;11.046;2023-04-10T12:33:38;101731.50;;;15.64;43.74
42125;BME280;27787;44.594;11.046;2023-04-10T12:36:27;101731.50;;;15.69;42.73
42125;BME280;27787;44.594;11.046;2023-04-10T12:39:22;101727.97;;;15.71;43.13
42125;BME280;27787;44.594;11.046;2023-04-10T12:42:24;101720.00;;;15.79;43.25
42125;BME280;27787;44.594;11.046;2023-04-10T12:45:09;101715.53;;;15.87;43.29
42125;BME280;27787;44.594;11.046;2023-04-10T12:47:56;101708.47;;;15.95;42.36
42125;BME280;27787;44.594;11.046;2023-04-10T12:50:46;101709.34;;;15.99;42.54
42125;BME280;27787;44.594;11.046;2023-04-10T12:53:30;101704.94;;;16.02;42.09
42125;BME280;27787;44.594;11.046;2023-04-10T12:56:25;101703.13;;;16.10;41.92
42125;BME280;27787;44.594;11.046;2023-04-10T12:59:09;101698.72;;;16.17;41.45
42125;BME280;27787;44.594;11.046;2023-04-10T13:01:53;101695.16;;;16.19;41.37
42125;BME280;27787;44.594;11.046;2023-04-10T13:04:38;101703.13;;;16.19;41.28
42125;BME280;27787;44.594;11.046;2023-04-10T13:07:22;101701.34;;;16.12;40.01
42125;BME280;27787;44.594;11.046;2023-04-10T13:10:07;101698.69;;;16.06;39.58
42125;BME280;27787;44.594;11.046;2023-04-10T13:12:51;101696.03;;;16.00;39.39
42125;BME280;27787;44.594;11.046;2023-04-10T13:15:35;101690.72;;;15.96;39.88
42125;BME280;27787;44.594;11.046;2023-04-10T13:18:20;101688.06;;;16.02;40.22
42125;BME280;27787;44.594;11.046;2023-04-10T13:21:04;101690.69;;;16.14;39.67
42125;BME280;27787;44.594;11.046;2023-04-10T13:23:49;101683.59;;;16.25;39.72
42125;BME280;27787;44.594;11.046;2023-04-10T13:26:33;101687.13;;;16.35;39.38
42125;BME280;27787;44.594;11.046;2023-04-10T13:29:17;101689.78;;;16.45;38.75
42125;BME280;27787;44.594;11.046;2023-04-10T13:32:02;101684.44;;;16.56;38.61
42125;BME280;27787;44.594;11.046;2023-04-10T13:34:48;101677.28;;;16.66;38.59
42125;BME280;27787;44.594;11.046;2023-04-10T13:37:32;101667.50;;;16.78;38.27
42125;BME280;27787;44.594;11.046;2023-04-10T13:40:17;101671.94;;;16.84;38.13
42125;BME280;27787;44.594;11.046;2023-04-10T13:43:01;101666.56;;;16.87;38.20
42125;BME280;27787;44.594;11.046;2023-04-10T13:45:46;101665.66;;;16.94;38.17
42125;BME280;27787;44.594;11.046;2023-04-10T13:48:30;101666.50;;;17.02;37.91
42125;BME280;27787;44.594;11.046;2023-04-10T13:51:14;101664.72;;;17.09;38.24
42125;BME280;27787;44.594;11.046;2023-04-10T13:53:58;101658.41;;;17.22;38.30
42125;BME280;27787;44.594;11.046;2023-04-10T13:56:43;101661.91;;;17.30;37.84
42125;BME280;27787;44.594;11.046;2023-04-10T13:59:29;101663.63;;;17.40;37.58
42125;BME280;27787;44.594;11.046;2023-04-10T14:02:13;101662.69;;;17.45;37.37
42125;BME280;27787;44.594;11.046;2023-04-10T14:04:57;101669.81;;;17.50;37.08
42125;BME280;27787;44.594;11.046;2023-04-10T14:07:42;101657.31;;;17.58;36.69
42125;BME280;27787;44.594;11.046;2023-04-10T14:10:26;101663.47;;;17.65;36.43
42125;BME280;27787;44.594;11.046;2023-04-10T14:13:10;101652.78;;;17.71;36.05
42125;BME280;27787;44.594;11.046;2023-04-10T14:15:54;101657.19;;;17.77;36.06
42125;BME280;27787;44.594;11.046;2023-04-10T14:18:38;101651.81;;;17.78;35.23
42125;BME280;27787;44.594;11.046;2023-04-10T14:21:22;101654.47;;;17.84;34.76
42125;BME280;27787;44.594;11.046;2023-04-10T14:24:06;101648.16;;;17.91;34.26
42125;BME280;27787;44.594;11.046;2023-04-10T14:26:50;101649.00;;;17.95;33.80
42125;BME280;27787;44.594;11.046;2023-04-10T14:29:36;101632.94;;;18.00;33.96
42125;BME280;27787;44.594;11.046;2023-04-10T14:32:21;101634.66;;;18.07;34.22
42125;BME280;27787;44.594;11.046;2023-04-10T14:35:06;101638.94;;;18.21;34.26
42125;BME280;27787;44.594;11.046;2023-04-10T14:37:50;101637.06;;;18.31;34.23
42125;BME280;27787;44.594;11.046;2023-04-10T14:40:35;101628.06;;;18.41;34.33
42125;BME280;27787;44.594;11.046;2023-04-10T14:43:19;101625.22;;;18.56;33.98
42125;BME280;27787;44.594;11.046;2023-04-10T14:46:03;101628.72;;;18.65;34.27
42125;BME280;27787;44.594;11.046;2023-04-10T14:48:48;101631.25;;;18.74;33.96
42125;BME280;27787;44.594;11.046;2023-04-10T14:51:32;101621.41;;;18.79;33.63
42125;BME280;27787;44.594;11.046;2023-04-10T14:54:16;101629.28;;;18.91;33.34
42125;BME280;27787;44.594;11.046;2023-04-10T14:57:04;101624.69;;;18.99;33.19
42125;BME280;27787;44.594;11.046;2023-04-10T14:59:48;101626.53;;;18.96;33.33
42125;BME280;27787;44.594;11.046;2023-04-10T15:02:32;101622.13;;;18.92;33.38